Flight Track Log - Related Links

Times and Time Zones

All times are in EST time to prevent confusion due to time zone crossing. See the EJA922 flight status page for this flight to view local times or setup timezone preferences in your user account.

Time Position Orientation Groundspeed Altitude Reporting Facility
EST Latitude Longitude Course Direction KTS MPH feet Rate Location/Type
Sat 08:02:40 PM 35.5244 -97.6453 61° Northeast 158 182 1,900  Level Fort Worth Center
Sat 08:03:41 PM 35.4700 -97.6675 198° South 203 234 3,100 1,355 Climbing Fort Worth Center
Sat 08:04:13 PM 35.4394 -97.6822 201° Southwest 222 255 4,000 3,500 Climbing Fort Worth Center
Sat 08:04:41 PM 35.4072 -97.6886 189° South 263 303 6,600 4,839 Climbing Fort Worth Center
Sat 08:05:15 PM 35.3961 -97.6475 108° East 249 287 9,000 3,474 Climbing Fort Worth Center
Sat 08:06:16 PM 35.4322 -97.5650 62° Northeast 279 321 12,100 2,683 Climbing Fort Worth Center
Sat 08:07:18 PM 35.4831 -97.4525 61° Northeast 362 417 14,500 2,952 Climbing Fort Worth Center
Sat 08:08:00 PM 35.6023 -97.0649 61° Northeast  Level FlightAware Approximate
Sat 08:08:20 PM 35.5375 -97.3300 61° Northeast 394 453 18,200  Level Fort Worth Center
Sat 08:09:21 PM 35.6081 -97.2303 49° Northeast 383 441 20,300 3,517 Climbing Fort Worth Center
Sat 08:10:16 PM 35.6778 -97.1350 48° Northeast 383 441 25,000 4,548 Climbing Kansas City Center
Sat 08:10:23 PM 35.6778 -97.1350 48° Northeast 376 433 25,000 3,094 Level Fort Worth Center
Sat 08:11:20 PM 35.7364 -97.0556 48° Northeast 328 377 28,300 2,949 Climbing Kansas City Center
Sat 08:12:21 PM 35.8003 -96.9686 48° Northeast 336 387 30,800 2,557 Climbing Kansas City Center
Sat 08:13:22 PM 35.8656 -96.8806 48° Northeast 345 397 33,500 2,361 Climbing Kansas City Center
Sat 08:14:23 PM 35.9306 -96.7900 48° Northeast 350 403 35,600 1,854 Climbing Kansas City Center
Sat 08:15:25 PM 36.0000 -96.6958 48° Northeast 364 419 37,300 1,672 Climbing Kansas City Center
Sat 08:16:25 PM 36.0814 -96.5847 48° Northeast 382 440 39,000 1,328 Climbing Kansas City Center
Sat 08:17:27 PM 36.1575 -96.4822 47° Northeast 396 456 40,000 1,122 Climbing Kansas City Center
Sat 08:18:28 PM 36.2356 -96.3708 49° Northeast 417 480 41,300 1,230 Climbing Kansas City Center
Sat 08:19:29 PM 36.3150 -96.2614 48° Northeast 425 489 42,500 976 Climbing Kansas City Center
Sat 08:20:31 PM 36.3956 -96.1492 48° Northeast 430 495 43,300 634 Climbing Kansas City Center
Sat 08:21:32 PM 36.4789 -96.0350 48° Northeast 438 504 43,800 590 Climbing Kansas City Center
Sat 08:22:33 PM 36.5631 -95.9142 49° Northeast 451 519 44,500 585 Climbing Kansas City Center
Sat 08:23:35 PM 36.6497 -95.7931 48° Northeast 459 528 45,000 246 Climbing Kansas City Center
Sat 08:24:35 PM 36.7389 -95.6692 48° Northeast 466 536 45,000  Level Kansas City Center
Sat 08:25:37 PM 36.8292 -95.5406 49° Northeast 478 550 45,000  Level Kansas City Center
Sat 08:26:38 PM 36.9186 -95.4133 49° Northeast 483 556 45,000  Level Kansas City Center
Sat 08:27:38 PM 37.0061 -95.2886 49° Northeast 477 549 45,000  Level Kansas City Center
Sat 08:28:40 PM 37.0947 -95.1636 48° Northeast 477 549 45,000  Level Kansas City Center
Sat 08:29:41 PM 37.1842 -95.0350 49° Northeast 482 555 45,000  Level Kansas City Center
Sat 08:30:42 PM 37.2739 -94.9053 49° Northeast 488 562 45,000  Level Kansas City Center
Sat 08:31:43 PM 37.3661 -94.7708 49° Northeast 499 574 45,000  Level Kansas City Center
Sat 08:32:43 PM 37.4597 -94.6386 48° Northeast 503 579 45,000  Level Kansas City Center
Sat 08:33:45 PM 37.5725 -94.4756 49° Northeast 510 587 45,000  Level Kansas City Center
Sat 08:34:47 PM 37.6678 -94.3392 49° Northeast 515 593 45,000  Level Kansas City Center
Sat 08:35:48 PM 37.7536 -94.2147 49° Northeast 518 596 45,000  Level Kansas City Center
Sat 08:36:49 PM 37.8494 -94.0781 48° Northeast 518 596 45,000  Level Kansas City Center
Sat 08:37:49 PM 37.9428 -93.9414 49° Northeast 514 592 45,000  Level Kansas City Center
Sat 08:38:52 PM 38.0367 -93.8050 49° Northeast 512 589 45,000  Level Kansas City Center
Sat 08:39:51 PM 38.1289 -93.6689 49° Northeast 508 585 45,000  Level Kansas City Center
Sat 08:40:53 PM 38.2225 -93.5339 49° Northeast 505 581 45,000  Level Kansas City Center
Sat 08:41:54 PM 38.3311 -93.3722 49° Northeast 501 577 45,000  Level Kansas City Center
Sat 08:42:57 PM 38.4211 -93.2394 49° Northeast 495 570 45,000  Level Kansas City Center
Sat 08:43:58 PM 38.5100 -93.1058 50° Northeast 492 566 45,000  Level Kansas City Center
Sat 08:44:58 PM 38.5994 -92.9714 50° Northeast 491 565 45,000  Level Kansas City Center
Sat 08:46:00 PM 38.6878 -92.8394 49° Northeast 488 562 45,000  Level Kansas City Center
Sat 08:47:01 PM 38.7753 -92.7083 49° Northeast 483 556 45,000  Level Kansas City Center
Sat 08:48:03 PM 38.8611 -92.5769 50° Northeast 479 551 45,000  Level Kansas City Center
Sat 08:49:04 PM 38.9469 -92.4472 50° Northeast 476 548 45,000  Level Kansas City Center
Sat 08:50:02 PM 39.0328 -92.3172 50° Northeast 474 545 45,000  Level Kansas City Center
Sat 08:51:04 PM 39.1183 -92.1872 50° Northeast 472 543 45,000  Level Kansas City Center
Sat 08:52:05 PM 39.2053 -92.0558 49° Northeast 476 548 45,000  Level Kansas City Center
Sat 08:53:09 PM 39.2947 -91.9142 51° Northeast 493 567 45,000  Level Kansas City Center
Sat 08:54:08 PM 39.3878 -91.7853 47° Northeast 497 572 45,000  Level Kansas City Center
Sat 08:55:11 PM 39.4833 -91.6558 46° Northeast 495 570 45,000  Level Kansas City Center
Sat 08:56:11 PM 39.5769 -91.5258 47° Northeast 499 574 45,000  Level Kansas City Center
Sat 08:57:13 PM 39.6925 -91.3656 47° Northeast 506 582 45,000 -1,161 Level Kansas City Center
Sat 08:58:15 PM 39.7919 -91.2297 46° Northeast 515 593 42,600 -2,529 Descending Kansas City Center
Sat 08:59:14 PM 39.8872 -91.0961 47° Northeast 512 589 39,900 -2,628 Descending Kansas City Center
Sat 09:00:16 PM 39.9814 -90.9633 47° Northeast 518 596 37,300 -2,585 Descending Kansas City Center
Sat 09:01:17 PM 40.0786 -90.8283 47° Northeast 515 593 34,600 -2,705 Descending Kansas City Center
Sat 09:02:18 PM 40.1767 -90.6883 47° Northeast 518 596 31,800 -1,785 Descending Kansas City Center
Sat 09:03:18 PM 40.2775 -90.5450 47° Northeast 529 609 31,000 -390 Descending Kansas City Center
Sat 09:04:21 PM 40.3814 -90.3972 47° Northeast 542 624 31,000 -390 Level Kansas City Center
Sat 09:05:21 PM 40.4844 -90.2497 47° Northeast 547 629 30,200 -1,426 Descending Kansas City Center
Sat 09:06:23 PM 40.6078 -90.0875 45° Northeast 533 613 28,100 -2,380 Descending Kansas City Center
Sat 09:07:22 PM 40.7058 -89.9714 42° Northeast 489 563 25,400 -2,557 Descending Kansas City Center
Sat 09:08:25 PM 40.7897 -89.8661 44° Northeast 478 550 22,900 -2,266 Descending Kansas City Center
Sat 09:09:45 PM 40.8972 -89.6792 53° Northeast 459 528 20,000 -2,043 Descending Chicago Center
Sat 09:10:46 PM 40.9606 -89.5267 61° Northeast 456 525 18,100 -1,770 Descending Chicago Center
Sat 09:11:47 PM 41.0208 -89.3814 61° Northeast 449 517 16,400 -1,672 Descending Chicago Center
Sat 09:12:48 PM 41.0789 -89.2397 61° Northeast 439 505 14,700 -1,721 Descending Chicago Center
Sat 09:13:49 PM 41.1400 -89.0892 62° Northeast 407 468 12,900 -1,574 Descending Chicago Center
Sat 09:14:50 PM 41.1861 -88.9769 61° Northeast 355 409 11,500 -1,279 Descending Chicago Center
Sat 09:15:51 PM 41.2272 -88.8731 62° Northeast 327 376 10,300 -1,180 Descending Chicago Center
Sat 09:16:52 PM 41.2672 -88.7753 61° Northeast 309 356 9,100 -1,180 Descending Chicago Center
Sat 09:17:53 PM 41.3061 -88.6781 62° Northeast 300 345 7,900 -1,140 Descending Chicago Center
Sat 09:18:53 PM 41.3461 -88.5781 62° Northeast 304 350 6,800 -942 Descending Chicago Center
Sat 09:19:54 PM 41.3881 -88.4819 60° Northeast 300 345 6,000 -393 Descending Chicago Center
Sat 09:20:55 PM 41.4450 -88.4036 46° Northeast 292 336 6,000 -443 Level Chicago Center
Sat 09:21:56 PM 41.5081 -88.3342 40° Northeast 291 335 5,100 -492 Descending Chicago Center
Sat 09:22:57 PM 41.5694 -88.2661 40° Northeast 286 329 5,000 -197 Descending Chicago Center
Sat 09:23:58 PM 41.6244 -88.2072 39° Northeast 263 303 4,700 -492 Descending Chicago Center
Sat 09:24:59 PM 41.6761 -88.1558 37° Northeast 244 281 4,000 -738 Descending Chicago Center
Sat 09:26:00 PM 41.7267 -88.1042 37° Northeast 234 269 3,200 -738 Descending Chicago Center
Sat 09:27:01 PM 41.7756 -88.0539 37° Northeast 228 262 2,500 -443 Descending Chicago Center
Sat 09:28:02 PM 41.8328 -87.9936 38° Northeast 222 255 2,300 -98 Descending Chicago Center
Sat 09:29:03 PM 41.8686 -87.9283 54° Northeast 224 258 2,300  Level Chicago Center
Sat 09:30:04 PM 41.8636 -87.8625 96° East 211 243 2,300 -148 Level Chicago Center
Sat 09:31:05 PM 41.8294 -87.8169 135° Southeast 189 217 2,000 -541 Descending Chicago Center
Sat 09:32:06 PM 41.8064 -87.7836 133° Southeast 154 177 1,200 -443 Descending Chicago Center
Sat 09:33:07 PM 41.7822 -87.7500 134° Southeast 149 171 1,100 -98 Descending Chicago Center

Login

Don't have an account? Register now (free) for customized features, flight alerts, and more!